Time;durP1;ratioP1;P1;durP2;ratioP2;P2;SDS_P1;SDS_P2;PMS_P1;PMS_P2;Temp;Humidity;BMP_temperature;BMP_pressure;BME280_temperature;BME280_humidity;BME280_pressure;Samples;Min_cycle;Max_cycle;Signal;HPM_P1;HPM_P2
2022/03/13 00:00:11;;;;;;;;;;;;;;;9.47;57.45;101452.41;5015699;28;19956;-73
2022/03/13 00:02:37;;;;;;;;;;;;;;;9.44;57.36;101455.91;5011520;28;19962;-72
2022/03/13 00:05:04;;;;;;;;;;;;;;;9.42;57.98;101452.38;5032318;28;19969;-73
2022/03/13 00:07:34;;;;;;;;;;;;;;;9.43;57.63;101459.38;5031519;28;20015;-73
2022/03/13 00:09:59;;;;;;;;;;;;;;;9.42;58.14;101464.59;5009615;28;19973;-73
2022/03/13 00:12:29;;;;;;;;;;;;;;;9.41;57.88;101457.63;5015091;28;19925;-73
2022/03/13 00:14:56;;;;;;;;;;;;;;;9.41;57.72;101466.34;5009309;28;19918;-74
2022/03/13 00:17:25;;;;;;;;;;;;;;;9.41;58.31;101457.63;5024770;28;19936;-72
2022/03/13 00:19:51;;;;;;;;;;;;;;;9.39;58.54;101465.47;5016134;28;19917;-72
2022/03/13 00:22:16;;;;;;;;;;;;;;;9.36;58.02;101457.59;5002800;28;20285;-72
2022/03/13 00:24:46;;;;;;;;;;;;;;;9.33;58.20;101455.84;5016018;28;19913;-72
2022/03/13 00:27:13;;;;;;;;;;;;;;;9.32;58.02;101446.28;5015817;28;19917;-73
2022/03/13 00:29:39;;;;;;;;;;;;;;;9.32;58.06;101454.13;5014752;28;19917;-72
2022/03/13 00:32:05;;;;;;;;;;;;;;;9.31;57.92;101457.59;5015369;28;19924;-72
2022/03/13 00:34:31;;;;;;;;;;;;;;;9.29;57.84;101453.22;5012547;28;20309;-73
2022/03/13 00:36:56;;;;;;;;;;;;;;;9.25;58.69;101449.75;5010605;28;19921;-73
2022/03/13 00:39:21;;;;;;;;;;;;;;;9.21;58.69;101450.59;5014080;28;19928;-73
2022/03/13 00:41:47;;;;;;;;;;;;;;;9.17;58.85;101443.59;5015490;28;19913;-74
2022/03/13 00:44:12;;;;;;;;;;;;;;;9.15;58.55;101434.88;5013794;28;20332;-72
2022/03/13 00:46:38;;;;;;;;;;;;;;;9.12;58.70;101419.16;5012606;28;19930;-72
2022/03/13 00:49:04;;;;;;;;;;;;;;;9.10;58.45;101426.16;5030226;28;19913;-73
2022/03/13 00:51:30;;;;;;;;;;;;;;;9.13;58.82;101415.69;5011269;28;19921;-73
2022/03/13 00:53:55;;;;;;;;;;;;;;;9.14;58.86;101422.69;5031134;28;20332;-74
2022/03/13 00:56:21;;;;;;;;;;;;;;;9.09;59.28;101422.63;5015248;28;19924;-73
2022/03/13 00:58:46;;;;;;;;;;;;;;;9.08;58.89;101425.25;5022163;28;20345;-73
2022/03/13 01:01:12;;;;;;;;;;;;;;;9.05;59.06;101420.00;5013981;28;19943;-73
2022/03/13 01:03:37;;;;;;;;;;;;;;;9.00;58.99;101418.25;5014781;28;19921;-73
2022/03/13 01:06:06;;;;;;;;;;;;;;;8.94;59.89;101412.16;5030050;28;20295;-72
2022/03/13 01:08:35;;;;;;;;;;;;;;;8.90;59.83;101411.25;5026224;28;20357;-73
2022/03/13 01:11:01;;;;;;;;;;;;;;;8.87;59.76;101413.84;5022762;28;19921;-72
2022/03/13 01:13:27;;;;;;;;;;;;;;;8.83;59.96;101401.63;5013026;28;20177;-72
2022/03/13 01:15:59;;;;;;;;;;;;;;;8.83;59.47;101405.13;5021345;28;19963;-73
2022/03/13 01:18:25;;;;;;;;;;;;;;;8.81;60.21;101406.84;5038591;28;19913;-73
2022/03/13 01:20:50;;;;;;;;;;;;;;;8.80;60.13;101404.22;5033329;28;19913;-74
2022/03/13 01:23:16;;;;;;;;;;;;;;;8.78;60.05;101392.91;5005840;28;19980;-74
2022/03/13 01:25:41;;;;;;;;;;;;;;;8.76;60.85;101399.84;5013982;28;20419;-73
2022/03/13 01:28:07;;;;;;;;;;;;;;;8.71;60.65;101389.38;5014209;28;19932;-73
2022/03/13 01:30:32;;;;;;;;;;;;;;;8.71;61.15;101388.53;5030985;28;19913;-72
2022/03/13 01:32:57;;;;;;;;;;;;;;;8.59;61.29;101387.59;5029757;28;20337;-72
2022/03/13 01:35:23;;;;;;;;;;;;;;;8.50;61.69;101384.91;5029716;28;20294;-74
2022/03/13 01:37:49;;;;;;;;;;;;;;;8.44;61.34;101375.31;5029914;28;19916;-72
2022/03/13 01:40:19;;;;;;;;;;;;;;;8.38;62.07;101374.38;5014077;28;19921;-72
2022/03/13 01:42:45;;;;;;;;;;;;;;;8.31;61.88;101376.94;5029287;28;19909;-73
2022/03/13 01:45:17;;;;;;;;;;;;;;;8.25;62.01;101373.44;5029634;28;20272;-72
2022/03/13 01:47:43;;;;;;;;;;;;;;;8.18;62.49;101367.28;5030081;28;20286;-72
2022/03/13 01:50:09;;;;;;;;;;;;;;;8.13;62.76;101369.88;5030255;28;20376;-72
2022/03/13 01:52:34;;;;;;;;;;;;;;;8.09;63.17;101364.63;5029927;28;19909;-73
2022/03/13 01:55:02;;;;;;;;;;;;;;;8.06;63.66;101362.88;5006980;28;19917;-73
2022/03/13 01:57:28;;;;;;;;;;;;;;;8.02;63.53;101355.88;5013518;28;19921;-73
2022/03/13 01:59:57;;;;;;;;;;;;;;;8.00;63.61;101351.50;5006298;28;19929;-72
2022/03/13 02:02:23;;;;;;;;;;;;;;;7.97;62.58;101352.34;5029029;28;20358;-73
2022/03/13 02:04:54;;;;;;;;;;;;;;;7.93;64.12;101354.06;5029609;28;19920;-72
2022/03/13 02:07:41;;;;;;;;;;;;;;;7.94;63.91;101361.06;5026084;28;19925;-73
2022/03/13 02:10:06;;;;;;;;;;;;;;;7.94;63.87;101345.41;5030797;28;20318;-72
2022/03/13 02:12:34;;;;;;;;;;;;;;;7.95;64.44;101349.72;5028827;28;20384;-72
2022/03/13 02:15:01;;;;;;;;;;;;;;;7.96;63.43;101346.25;5029794;28;20431;-73
2022/03/13 02:17:34;;;;;;;;;;;;;;;7.95;64.10;101343.66;5028713;28;19913;-72
2022/03/13 02:19:59;;;;;;;;;;;;;;;7.99;63.29;101345.41;5029653;28;19920;-73
2022/03/13 02:22:24;;;;;;;;;;;;;;;8.01;63.22;101346.28;5029563;28;19913;-73
2022/03/13 02:24:53;;;;;;;;;;;;;;;8.03;64.16;101344.56;5013546;28;19970;-72
2022/03/13 02:27:23;;;;;;;;;;;;;;;8.04;63.42;101335.00;5029655;28;19916;-72
2022/03/13 02:29:48;;;;;;;;;;;;;;;8.03;63.54;101330.63;5029164;28;19920;-72
2022/03/13 02:32:13;;;;;;;;;;;;;;;8.03;62.75;101335.84;5011616;28;19918;-72
2022/03/13 02:34:39;;;;;;;;;;;;;;;7.97;64.00;101329.75;5013128;28;19940;-72
2022/03/13 02:37:04;;;;;;;;;;;;;;;7.95;63.66;101335.81;5012024;28;19924;-73
2022/03/13 02:39:35;;;;;;;;;;;;;;;7.94;63.48;101329.72;5013952;28;19952;-73
2022/03/13 02:42:01;;;;;;;;;;;;;;;7.94;63.46;101337.56;5028890;28;19921;-72
2022/03/13 02:44:26;;;;;;;;;;;;;;;7.90;63.43;101327.97;5008874;28;19924;-72
2022/03/13 02:46:54;;;;;;;;;;;;;;;7.87;64.49;101333.13;5010660;28;19975;-73
2022/03/13 02:49:20;;;;;;;;;;;;;;;7.86;64.57;101333.13;5026037;28;20010;-72
2022/03/13 02:51:47;;;;;;;;;;;;;;;7.82;64.39;101332.25;5003547;28;19999;-72
2022/03/13 02:54:13;;;;;;;;;;;;;;;7.78;63.82;101328.72;5019077;28;19917;-73
2022/03/13 02:56:38;;;;;;;;;;;;;;;7.74;64.33;101321.75;5010435;28;19917;-73
2022/03/13 02:59:04;;;;;;;;;;;;;;;7.73;63.92;101321.72;5028544;28;19920;-73
2022/03/13 03:01:29;;;;;;;;;;;;;;;7.70;63.48;101313.88;5000218;28;19948;-72
2022/03/13 03:03:56;;;;;;;;;;;;;;;7.71;63.68;101318.25;5026801;28;19913;-72
2022/03/13 03:06:24;;;;;;;;;;;;;;;7.71;63.57;101313.88;5019247;28;19924;-72
2022/03/13 03:08:50;;;;;;;;;;;;;;;7.72;64.02;101323.47;5012351;28;20023;-72
2022/03/13 03:11:16;;;;;;;;;;;;;;;7.73;63.42;101316.50;5014352;28;19936;-72
2022/03/13 03:13:42;;;;;;;;;;;;;;;7.74;62.06;101318.25;5011461;28;19948;-72
2022/03/13 03:16:11;;;;;;;;;;;;;;;7.75;62.66;101314.78;5012754;28;20348;-73
2022/03/13 03:18:36;;;;;;;;;;;;;;;7.75;62.12;101322.63;5014918;28;19963;-72
2022/03/13 03:21:04;;;;;;;;;;;;;;;7.65;62.95;101318.19;5015085;28;19979;-72
2022/03/13 03:23:30;;;;;;;;;;;;;;;7.58;63.12;101312.91;5025816;28;19917;-72
2022/03/13 03:25:55;;;;;;;;;;;;;;;7.58;62.79;101322.47;5032525;28;20272;-72
2022/03/13 03:28:22;;;;;;;;;;;;;;;7.51;64.23;101318.94;5011723;28;20028;-72
2022/03/13 03:30:47;;;;;;;;;;;;;;;7.52;63.26;101320.69;5027731;28;19921;-72
2022/03/13 03:33:18;;;;;;;;;;;;;;;7.48;63.97;101312.84;5006127;28;19928;-72
2022/03/13 03:35:46;;;;;;;;;;;;;;;7.47;64.97;101314.59;5015694;28;20305;-72
2022/03/13 03:38:11;;;;;;;;;;;;;;;7.47;64.42;101314.59;5015041;28;19917;-72
2022/03/13 03:40:40;;;;;;;;;;;;;;;7.55;63.81;101312.03;5013646;28;19928;-72
2022/03/13 03:43:08;;;;;;;;;;;;;;;7.46;64.14;101310.22;5006718;28;19918;-72
2022/03/13 03:45:33;;;;;;;;;;;;;;;7.47;63.30;101304.16;5024770;28;19979;-72
2022/03/13 03:48:02;;;;;;;;;;;;;;;7.48;63.65;101313.69;5027273;28;20358;-74
2022/03/13 03:50:29;;;;;;;;;;;;;;;7.54;64.59;101311.16;5026850;28;19923;-72
2022/03/13 03:52:55;;;;;;;;;;;;;;;7.56;64.02;101314.66;5026612;28;19924;-73
2022/03/13 03:55:21;;;;;;;;;;;;;;;7.48;64.72;101308.47;5030811;28;19917;-73
2022/03/13 03:57:47;;;;;;;;;;;;;;;7.61;63.89;101301.63;5031086;28;19913;-73
2022/03/13 04:00:12;;;;;;;;;;;;;;;7.58;63.76;101312.91;5027609;28;19928;-72
2022/03/13 04:02:39;;;;;;;;;;;;;;;7.65;63.53;101316.44;5014748;28;19932;-72
2022/03/13 04:05:04;;;;;;;;;;;;;;;7.57;63.70;101311.19;5009122;28;19921;-73
2022/03/13 04:07:30;;;;;;;;;;;;;;;7.52;63.89;101310.25;5011683;28;20064;-73
2022/03/13 04:09:55;;;;;;;;;;;;;;;7.55;63.88;101305.06;5012195;28;20321;-73
2022/03/13 04:12:21;;;;;;;;;;;;;;;7.52;62.62;101310.25;5014702;28;19917;-73
2022/03/13 04:14:46;;;;;;;;;;;;;;;7.68;62.89;101307.78;5031423;28;19924;-73
2022/03/13 04:17:13;;;;;;;;;;;;;;;7.73;62.24;101306.06;5010863;28;20294;-73
2022/03/13 04:19:38;;;;;;;;;;;;;;;7.65;62.76;101298.19;5010853;28;19917;-73
2022/03/13 04:22:03;;;;;;;;;;;;;;;7.57;63.06;101302.47;5007735;28;21667;-74
2022/03/13 04:24:31;;;;;;;;;;;;;;;7.57;62.23;101299.88;5025141;28;19917;-72
2022/03/13 04:26:57;;;;;;;;;;;;;;;7.48;62.14;101300.66;5011316;28;19921;-73
2022/03/13 04:29:23;;;;;;;;;;;;;;;7.53;61.90;101293.75;5010619;28;19925;-72
2022/03/13 04:31:49;;;;;;;;;;;;;;;7.48;62.85;101299.81;5013199;28;19921;-73
2022/03/13 04:34:16;;;;;;;;;;;;;;;7.53;62.23;101304.19;5028840;28;20040;-72
2022/03/13 04:36:41;;;;;;;;;;;;;;;7.59;61.75;101295.53;5030328;28;20275;-73
2022/03/13 04:39:07;;;;;;;;;;;;;;;7.45;61.97;101296.28;5027901;28;20297;-73
2022/03/13 04:41:32;;;;;;;;;;;;;;;7.58;62.57;101293.78;5030815;28;20011;-72
2022/03/13 04:43:58;;;;;;;;;;;;;;;7.52;61.78;101292.00;5028786;28;20258;-73
2022/03/13 04:46:24;;;;;;;;;;;;;;;7.53;61.66;101305.91;5013332;28;19936;-72
2022/03/13 04:48:53;;;;;;;;;;;;;;;7.45;61.49;101308.47;5024667;28;19913;-72
2022/03/13 04:51:18;;;;;;;;;;;;;;;7.32;61.56;101306.63;5004963;28;20435;-74
2022/03/13 04:53:44;;;;;;;;;;;;;;;7.29;61.57;101305.72;5012411;28;19921;-72
2022/03/13 04:56:10;;;;;;;;;;;;;;;7.31;62.01;101304.88;5028933;28;20007;-72
2022/03/13 04:58:35;;;;;;;;;;;;;;;7.26;61.89;101310.03;5012901;28;19937;-73
2022/03/13 05:01:01;;;;;;;;;;;;;;;7.22;62.18;101314.34;5011790;28;20023;-73
2022/03/13 05:03:27;;;;;;;;;;;;;;;7.19;62.52;101323.88;5028438;28;19920;-74
2022/03/13 05:05:53;;;;;;;;;;;;;;;7.13;63.87;101327.28;5029211;28;20007;-73
2022/03/13 05:08:19;;;;;;;;;;;;;;;7.08;64.14;101326.34;5028055;28;20000;-72
2022/03/13 05:10:47;;;;;;;;;;;;;;;7.02;64.94;101321.09;5030390;28;20094;-72
2022/03/13 05:13:14;;;;;;;;;;;;;;;6.98;63.78;101321.91;5012154;28;19928;-72
2022/03/13 05:15:41;;;;;;;;;;;;;;;6.90;65.92;101312.28;5030349;28;20008;-72
2022/03/13 05:18:07;;;;;;;;;;;;;;;7.04;63.84;101314.16;5028955;28;20318;-73
2022/03/13 05:20:36;;;;;;;;;;;;;;;7.01;63.74;101303.69;5005978;28;19924;-73
2022/03/13 05:23:02;;;;;;;;;;;;;;;7.02;64.45;101310.66;5007910;28;20024;-72
2022/03/13 05:25:31;;;;;;;;;;;;;;;6.91;65.47;101303.63;5025062;28;20004;-72
2022/03/13 05:27:57;;;;;;;;;;;;;;;6.81;64.67;101306.09;5006250;28;19966;-72
2022/03/13 05:30:22;;;;;;;;;;;;;;;6.72;65.79;101305.16;5026680;28;19944;-72
2022/03/13 05:32:48;;;;;;;;;;;;;;;6.89;66.24;101304.44;5008057;28;20281;-72
2022/03/13 05:35:14;;;;;;;;;;;;;;;6.92;64.88;101305.38;5028450;28;20726;-72
2022/03/13 05:37:39;;;;;;;;;;;;;;;6.95;65.27;101304.50;5027223;28;19912;-73
2022/03/13 05:40:05;;;;;;;;;;;;;;;6.96;66.04;101310.59;5007810;28;19917;-73
2022/03/13 05:42:30;;;;;;;;;;;;;;;6.90;66.43;101307.06;5029002;28;19925;-73
2022/03/13 05:44:56;;;;;;;;;;;;;;;6.82;66.63;101306.09;5008581;28;19924;-72
2022/03/13 05:47:21;;;;;;;;;;;;;;;6.83;66.62;101305.25;5013176;28;19982;-72
2022/03/13 05:49:47;;;;;;;;;;;;;;;6.83;66.60;101307.84;5011873;28;20503;-73
2022/03/13 05:52:13;;;;;;;;;;;;;;;6.86;66.99;101310.50;5028711;28;19948;-73
2022/03/13 05:54:39;;;;;;;;;;;;;;;6.76;66.63;101311.25;5020525;28;19917;-72
2022/03/13 05:57:06;;;;;;;;;;;;;;;6.69;66.66;101312.91;5022852;28;19971;-73
2022/03/13 05:59:33;;;;;;;;;;;;;;;6.65;66.28;101310.25;5030027;28;19920;-72
2022/03/13 06:02:01;;;;;;;;;;;;;;;6.61;66.64;101316.28;5021306;28;19924;-73
2022/03/13 06:04:29;;;;;;;;;;;;;;;6.64;65.53;101313.69;5011152;28;19921;-72
2022/03/13 06:06:55;;;;;;;;;;;;;;;6.65;66.09;101311.13;5008705;28;19971;-73
2022/03/13 06:09:21;;;;;;;;;;;;;;;6.54;65.54;101308.41;5011401;28;19944;-73
2022/03/13 06:11:46;;;;;;;;;;;;;;;6.72;64.96;101312.06;5010888;28;20389;-73
2022/03/13 06:14:11;;;;;;;;;;;;;;;6.81;65.08;101311.28;5027866;28;19929;-73
2022/03/13 06:16:38;;;;;;;;;;;;;;;6.70;65.02;101308.59;5009424;28;20420;-74
2022/03/13 06:19:03;;;;;;;;;;;;;;;6.65;65.19;101316.34;5010435;28;19917;-73
2022/03/13 06:21:31;;;;;;;;;;;;;;;6.58;64.92;101314.53;5012274;28;19921;-73
2022/03/13 06:23:56;;;;;;;;;;;;;;;6.49;66.23;101303.97;5011347;28;19917;-72
2022/03/13 06:26:21;;;;;;;;;;;;;;;6.57;65.37;101307.56;5003045;28;19979;-72
2022/03/13 06:28:47;;;;;;;;;;;;;;;6.61;65.19;101306.75;5026983;28;19923;-72
2022/03/13 06:31:12;;;;;;;;;;;;;;;6.50;66.00;101304.00;5045311;28;19948;-73
2022/03/13 06:33:38;;;;;;;;;;;;;;;6.49;65.82;101315.25;5028703;28;19917;-74
2022/03/13 06:36:03;;;;;;;;;;;;;;;6.49;65.71;101312.66;5013360;28;20023;-72
2022/03/13 06:38:29;;;;;;;;;;;;;;;6.50;65.10;101309.22;5009264;28;19924;-73
2022/03/13 06:40:54;;;;;;;;;;;;;;;6.69;65.61;101312.03;5028955;28;20003;-73
2022/03/13 06:43:20;;;;;;;;;;;;;;;6.54;66.31;101305.78;5010609;28;19924;-74
2022/03/13 06:45:45;;;;;;;;;;;;;;;6.52;66.29;101310.13;5028905;28;19913;-72
2022/03/13 06:48:15;;;;;;;;;;;;;;;6.52;66.73;101311.81;5031894;28;19920;-73
2022/03/13 06:50:41;;;;;;;;;;;;;;;6.54;65.82;101313.59;5017575;28;19921;-73
2022/03/13 06:53:06;;;;;;;;;;;;;;;6.66;65.64;101317.22;5031954;28;19920;-72
2022/03/13 06:55:32;;;;;;;;;;;;;;;6.62;65.28;101323.25;5017072;28;20353;-73
2022/03/13 06:57:57;;;;;;;;;;;;;;;6.63;65.73;101315.44;5016518;28;20281;-73
2022/03/13 07:00:23;;;;;;;;;;;;;;;6.71;64.93;101319.03;5030447;28;20293;-73
2022/03/13 07:02:49;;;;;;;;;;;;;;;6.80;65.05;101317.38;5002992;28;20282;-72
2022/03/13 07:05:14;;;;;;;;;;;;;;;6.71;65.19;101329.44;5016178;28;20441;-72
2022/03/13 07:07:40;;;;;;;;;;;;;;;6.80;64.77;101325.19;5016481;28;19917;-72
2022/03/13 07:10:11;;;;;;;;;;;;;;;6.83;64.83;101323.50;5016045;28;20365;-73
2022/03/13 07:12:36;;;;;;;;;;;;;;;6.76;65.89;101324.28;5016009;28;20385;-72
2022/03/13 07:15:08;;;;;;;;;;;;;;;6.81;65.70;101313.91;5011123;28;20141;-72
2022/03/13 07:17:34;;;;;;;;;;;;;;;7.04;64.67;101302.00;5014459;28;19928;-72
2022/03/13 07:19:59;;;;;;;;;;;;;;;7.07;65.22;101309.00;5015316;28;19917;-72
2022/03/13 07:22:24;;;;;;;;;;;;;;;7.12;64.55;101307.28;5008526;28;19917;-72
2022/03/13 07:24:50;;;;;;;;;;;;;;;7.11;64.53;101311.63;5015452;28;19924;-72
2022/03/13 07:27:16;;;;;;;;;;;;;;;7.23;64.69;101310.03;5027602;28;19924;-72
2022/03/13 07:29:41;;;;;;;;;;;;;;;7.21;64.63;101316.94;5016561;28;19917;-72
2022/03/13 07:32:07;;;;;;;;;;;;;;;7.09;64.85;101317.69;5012723;28;19944;-72
2022/03/13 07:34:32;;;;;;;;;;;;;;;7.26;64.32;101320.47;5028880;28;19921;-72
2022/03/13 07:36:58;;;;;;;;;;;;;;;7.23;64.42;101312.63;5026025;28;20359;-72
2022/03/13 07:39:24;;;;;;;;;;;;;;;7.31;63.48;101304.88;5013519;28;19916;-73
2022/03/13 07:41:50;;;;;;;;;;;;;;;7.20;63.45;101310.84;5029724;28;19913;-73
2022/03/13 07:44:15;;;;;;;;;;;;;;;7.41;63.09;101310.19;5030501;28;20296;-72
2022/03/13 07:46:40;;;;;;;;;;;;;;;7.44;63.27;101310.22;5026047;28;19927;-73
2022/03/13 07:49:06;;;;;;;;;;;;;;;7.45;63.25;101300.63;5007564;28;19917;-72
2022/03/13 07:51:34;;;;;;;;;;;;;;;7.46;63.60;101298.03;5019166;28;19928;-72
2022/03/13 07:53:59;;;;;;;;;;;;;;;7.51;63.32;101303.28;5012641;28;19928;-73
2022/03/13 07:56:24;;;;;;;;;;;;;;;7.57;62.38;101300.75;5004830;28;19917;-72
2022/03/13 07:58:50;;;;;;;;;;;;;;;7.59;61.94;101304.22;5006992;28;21461;-73
2022/03/13 08:01:15;;;;;;;;;;;;;;;7.45;62.23;101303.25;5008762;28;19925;-73
2022/03/13 08:03:44;;;;;;;;;;;;;;;7.49;62.44;101304.16;4999906;28;19956;-73
2022/03/13 08:06:12;;;;;;;;;;;;;;;7.50;61.90;101304.19;5012032;28;19988;-73
2022/03/13 08:08:37;;;;;;;;;;;;;;;7.59;61.21;101306.84;5028879;28;19913;-73
2022/03/13 08:11:03;;;;;;;;;;;;;;;7.52;60.81;101302.44;5008796;28;20005;-72
2022/03/13 08:13:28;;;;;;;;;;;;;;;7.59;61.28;101308.59;5009498;28;19929;-72
2022/03/13 08:15:53;;;;;;;;;;;;;;;7.53;61.08;101292.88;5012193;28;19917;-72
2022/03/13 08:18:19;;;;;;;;;;;;;;;7.61;60.99;101293.81;5022689;28;19912;-72
2022/03/13 08:20:45;;;;;;;;;;;;;;;7.73;60.51;101291.31;5019569;28;20366;-73
2022/03/13 08:23:10;;;;;;;;;;;;;;;7.87;59.63;101296.59;5008355;28;19924;-73
2022/03/13 08:25:36;;;;;;;;;;;;;;;7.92;59.78;101296.66;5028902;28;19917;-73
2022/03/13 08:28:01;;;;;;;;;;;;;;;8.00;59.29;101299.31;5021036;28;19976;-72
2022/03/13 08:30:27;;;;;;;;;;;;;;;8.08;59.30;101288.03;5008330;28;19924;-72
2022/03/13 08:32:52;;;;;;;;;;;;;;;8.12;57.20;101299.38;5021673;28;19921;-72
2022/03/13 08:35:18;;;;;;;;;;;;;;;8.29;58.84;101305.56;5030025;28;19917;-72
2022/03/13 08:37:44;;;;;;;;;;;;;;;8.43;57.66;101296.91;5013299;28;19960;-72
2022/03/13 08:40:11;;;;;;;;;;;;;;;8.37;56.45;101299.50;5024984;28;21261;-73
2022/03/13 08:42:36;;;;;;;;;;;;;;;8.52;58.04;101299.63;5011028;28;19928;-72
2022/03/13 08:45:05;;;;;;;;;;;;;;;8.51;57.47;101300.47;5024910;28;19914;-73
2022/03/13 08:47:31;;;;;;;;;;;;;;;8.65;57.17;101301.41;5021796;28;20394;-72
2022/03/13 08:49:56;;;;;;;;;;;;;;;8.85;56.27;101308.44;5012091;28;19921;-72
2022/03/13 08:52:22;;;;;;;;;;;;;;;8.90;55.88;101303.22;5007556;28;19923;-73
2022/03/13 08:54:48;;;;;;;;;;;;;;;9.08;54.94;101305.88;5030208;28;19923;-74
2022/03/13 08:57:13;;;;;;;;;;;;;;;9.25;54.10;101298.06;5023333;28;19913;-73
2022/03/13 08:59:39;;;;;;;;;;;;;;;9.76;54.09;101300.66;5013093;28;19927;-73
2022/03/13 09:02:21;;;;;;;;;;;;;;;10.53;50.77;101297.88;5013653;28;19917;-73
2022/03/13 09:04:46;;;;;;;;;;;;;;;10.81;51.42;101294.25;5020599;28;19913;-73
2022/03/13 09:07:12;;;;;;;;;;;;;;;11.29;48.73;101291.31;5029427;28;19913;-72
2022/03/13 09:09:37;;;;;;;;;;;;;;;11.31;49.39;101281.69;5013181;28;20374;-74
2022/03/13 09:12:02;;;;;;;;;;;;;;;11.43;49.15;101285.09;5023435;28;19940;-72
2022/03/13 09:14:28;;;;;;;;;;;;;;;12.70;46.65;101281.13;5006372;28;19929;-73
2022/03/13 09:16:53;;;;;;;;;;;;;;;13.55;45.23;101281.59;5014783;28;20004;-72
2022/03/13 09:19:20;;;;;;;;;;;;;;;14.00;43.71;101292.22;5006523;28;19925;-74
2022/03/13 09:21:45;;;;;;;;;;;;;;;14.09;44.29;101276.22;5010861;28;19928;-73
2022/03/13 09:24:13;;;;;;;;;;;;;;;14.76;41.87;101275.78;5013043;28;19917;-74
2022/03/13 09:26:39;;;;;;;;;;;;;;;14.80;44.53;101273.94;5024119;28;20413;-73
2022/03/13 09:29:05;;;;;;;;;;;;;;;14.65;43.41;101277.78;5004406;28;20051;-75
2022/03/13 09:31:31;;;;;;;;;;;;;;;14.40;43.09;101283.53;5028782;28;19960;-73
2022/03/13 09:33:56;;;;;;;;;;;;;;;14.06;42.34;101278.06;5022892;28;19924;-75
2022/03/13 09:36:21;;;;;;;;;;;;;;;13.77;44.64;101280.34;5010000;28;19928;-74
2022/03/13 09:38:47;;;;;;;;;;;;;;;13.30;43.86;101271.47;5030397;28;19917;-73
2022/03/13 09:41:12;;;;;;;;;;;;;;;13.07;45.04;101267.41;5014032;28;20376;-74
2022/03/13 09:43:38;;;;;;;;;;;;;;;13.21;46.32;101266.34;5006134;28;19925;-73
2022/03/13 09:46:04;;;;;;;;;;;;;;;13.26;45.13;101273.28;5005764;28;20002;-72
2022/03/13 09:48:30;;;;;;;;;;;;;;;13.16;44.82;101269.94;5022407;28;19913;-73
2022/03/13 09:50:56;;;;;;;;;;;;;;;13.21;44.80;101275.13;5009353;28;20366;-74
2022/03/13 09:53:21;;;;;;;;;;;;;;;13.27;44.64;101275.00;5008027;28;19925;-73
2022/03/13 09:55:46;;;;;;;;;;;;;;;13.34;44.62;101278.41;5013319;28;19925;-73
2022/03/13 09:58:12;;;;;;;;;;;;;;;13.58;45.45;101268.41;5011341;28;19959;-74
2022/03/13 10:00:39;;;;;;;;;;;;;;;14.25;44.97;101283.84;5005882;28;20003;-73
2022/03/13 10:03:11;;;;;;;;;;;;;;;15.41;42.96;101277.78;5025472;28;20391;-73
2022/03/13 10:05:55;;;;;;;;;;;;;;;17.00;39.54;101284.88;5029489;28;19963;-74
2022/03/13 10:08:25;;;;;;;;;;;;;;;18.10;36.09;101279.41;5039566;28;20350;-74
2022/03/13 10:10:51;;;;;;;;;;;;;;;17.91;35.91;101276.56;5032176;28;19913;-75
2022/03/13 10:13:31;;;;;;;;;;;;;;;17.79;36.49;101280.47;5025106;28;19917;-75
2022/03/13 10:15:56;;;;;;;;;;;;;;;17.53;36.88;101269.00;5027488;28;19928;-74
2022/03/13 10:18:24;;;;;;;;;;;;;;;16.93;37.13;101285.03;5024576;28;19917;-77
2022/03/13 10:20:49;;;;;;;;;;;;;;;16.38;37.81;101268.16;5036975;28;19962;-74
2022/03/13 10:23:19;;;;;;;;;;;;;;;16.48;39.74;101261.69;5032030;28;19915;-73
2022/03/13 10:25:50;;;;;;;;;;;;;;;16.60;37.94;101260.44;5014893;28;19925;-76
2022/03/13 10:28:18;;;;;;;;;;;;;;;16.48;39.62;101266.97;5032959;28;19913;-74
2022/03/13 10:30:44;;;;;;;;;;;;;;;17.05;38.24;101248.50;5034002;28;20020;-74
2022/03/13 10:33:10;;;;;;;;;;;;;;;17.86;37.45;101257.25;5028022;28;20031;-76
2022/03/13 10:35:36;;;;;;;;;;;;;;;18.28;36.15;101246.91;5033869;28;19936;-74
2022/03/13 10:38:12;;;;;;;;;;;;;;;19.60;34.48;101239.88;5016854;28;20389;-74
2022/03/13 10:40:37;;;;;;;;;;;;;;;19.95;34.11;101242.81;5033396;28;19952;-74
2022/03/13 10:43:06;;;;;;;;;;;;;;;19.98;33.20;101233.81;5020008;28;19967;-74
2022/03/13 10:45:39;;;;;;;;;;;;;;;20.03;33.46;101246.00;5016229;28;19917;-76
2022/03/13 10:48:32;;;;;;;;;;;;;;;20.65;31.61;101240.47;5027711;28;19912;-75
2022/03/13 10:50:59;;;;;;;;;;;;;;;20.45;31.52;101232.59;5028647;28;19921;-75
2022/03/13 10:53:24;;;;;;;;;;;;;;;21.28;31.22;101236.56;5033029;28;19964;-73
2022/03/13 10:56:19;;;;;;;;;;;;;;;21.89;29.92;101231.69;5035549;28;19916;-73
2022/03/13 10:58:45;;;;;;;;;;;;;;;22.05;29.15;101237.06;5015288;28;19936;-77
2022/03/13 11:01:12;;;;;;;;;;;;;;;22.27;29.18;101234.97;5034755;28;20009;-74
2022/03/13 11:03:47;;;;;;;;;;;;;;;22.63;28.73;101231.22;5035696;28;19912;-75
2022/03/13 11:06:13;;;;;;;;;;;;;;;23.14;27.85;101224.81;5034808;28;20332;-76
2022/03/13 11:08:40;;;;;;;;;;;;;;;23.14;28.57;101219.47;5018235;28;19951;-74
2022/03/13 11:11:06;;;;;;;;;;;;;;;23.39;28.05;101224.22;5019001;28;19952;-76
2022/03/13 11:13:32;;;;;;;;;;;;;;;23.28;28.14;101222.19;5035103;28;19948;-77
2022/03/13 11:15:58;;;;;;;;;;;;;;;23.17;29.55;101220.16;5020912;28;20334;-74
2022/03/13 11:18:33;;;;;;;;;;;;;;;23.60;27.98;101215.84;5033884;28;19947;-75
2022/03/13 11:20:59;;;;;;;;;;;;;;;23.38;28.49;101217.16;5034625;28;19967;-76
2022/03/13 11:23:27;;;;;;;;;;;;;;;22.03;28.70;101218.47;5019071;28;19943;-75
2022/03/13 11:25:55;;;;;;;;;;;;;;;21.97;29.41;101214.31;5019458;28;20320;-75
2022/03/13 11:28:20;;;;;;;;;;;;;;;22.02;29.27;101221.22;5018921;28;19917;-77
2022/03/13 11:30:46;;;;;;;;;;;;;;;21.82;29.46;101212.47;5032734;28;19963;-74
2022/03/13 11:33:29;;;;;;;;;;;;;;;21.74;30.89;101202.22;5012268;28;19928;-74
2022/03/13 11:36:14;;;;;;;;;;;;;;;22.31;29.34;101199.16;5046807;28;19921;-74
2022/03/13 11:38:56;;;;;;;;;;;;;;;23.17;29.26;101193.44;5023102;28;19928;-74
2022/03/13 11:41:41;;;;;;;;;;;;;;;24.18;27.75;101188.19;5029815;28;20288;-75
2022/03/13 11:44:19;;;;;;;;;;;;;;;23.96;26.86;101199.34;5047963;28;19919;-75
2022/03/13 11:46:48;;;;;;;;;;;;;;;23.73;26.76;101206.13;5033546;28;19913;-75
2022/03/13 11:49:15;;;;;;;;;;;;;;;23.72;26.67;101195.50;5037830;28;19912;-76
2022/03/13 11:51:44;;;;;;;;;;;;;;;23.18;28.75;101203.13;5046539;28;19913;-74
2022/03/13 11:54:15;;;;;;;;;;;;;;;22.52;28.47;101198.91;5015261;28;19921;-75
2022/03/13 11:56:50;;;;;;;;;;;;;;;21.62;30.55;101194.84;5011573;28;19948;-75
2022/03/13 11:59:19;;;;;;;;;;;;;;;21.11;30.10;101195.63;5011533;28;19979;-75
2022/03/13 12:01:45;;;;;;;;;;;;;;;20.28;31.74;101181.00;5027505;28;20380;-75
2022/03/13 12:04:10;;;;;;;;;;;;;;;19.73;32.42;101185.22;5026938;28;19913;-76
2022/03/13 12:06:42;;;;;;;;;;;;;;;19.36;33.28;101173.56;5028576;28;19913;-77
2022/03/13 12:09:11;;;;;;;;;;;;;;;18.70;33.84;101174.53;5025123;28;20015;-73
2022/03/13 12:11:40;;;;;;;;;;;;;;;18.63;35.00;101177.47;5030413;28;20000;-74
2022/03/13 12:14:09;;;;;;;;;;;;;;;18.94;33.85;101174.47;5031335;28;19921;-73
2022/03/13 12:16:35;;;;;;;;;;;;;;;18.56;34.09;101171.56;5012571;28;19920;-72
2022/03/13 12:19:01;;;;;;;;;;;;;;;18.28;35.01;101161.16;5031277;28;19913;-75
2022/03/13 12:21:26;;;;;;;;;;;;;;;18.25;35.00;101167.44;5030810;28;20302;-75
2022/03/13 12:23:58;;;;;;;;;;;;;;;18.15;35.79;101166.06;5014830;28;19916;-75
2022/03/13 12:26:28;;;;;;;;;;;;;;;17.80;36.60;101165.56;5026234;28;20284;-75
2022/03/13 12:28:57;;;;;;;;;;;;;;;17.75;37.02;101164.88;5013356;28;19923;-72
2022/03/13 12:31:23;;;;;;;;;;;;;;;18.21;35.46;101157.88;5023392;28;19913;-73
2022/03/13 12:33:51;;;;;;;;;;;;;;;18.69;34.46;101162.16;5024164;28;19917;-73
2022/03/13 12:36:17;;;;;;;;;;;;;;;18.82;34.73;101148.38;5020743;28;19940;-74
2022/03/13 12:38:43;;;;;;;;;;;;;;;18.69;35.38;101143.59;5010015;28;19916;-73
2022/03/13 12:41:09;;;;;;;;;;;;;;;19.10;34.80;101145.47;5029961;28;19975;-73